Time;durP1;ratioP1;P1;durP2;ratioP2;P2;SDS_P1;SDS_P2;PMS_P1;PMS_P2;Temp;Humidity;BMP_temperature;BMP_pressure;BME280_temperature;BME280_humidity;BME280_pressure;Samples;Min_cycle;Max_cycle;Signal;HPM_P1;HPM_P2
2023/03/03 00:00:53;;;;;;;65.20;11.17;;;3.20;99.90;;;;;;5000356;28;20041;-82
2023/03/03 00:03:22;;;;;;;40.50;9.50;;;4.40;99.90;;;;;;5000463;28;20811;-82
2023/03/03 00:05:48;;;;;;;40.10;10.00;;;3.20;99.90;;;;;;5016413;28;20482;-82
2023/03/03 00:08:14;;;;;;;;;;;3.20;99.90;;;;;;5016314;28;20041;-82
2023/03/03 00:10:40;;;;;;;87.22;10.82;;;3.10;99.90;;;;;;5016521;28;19993;-82
2023/03/03 00:13:14;;;;;;;60.97;10.48;;;3.90;99.90;;;;;;5016387;28;20477;-82
2023/03/03 00:15:40;;;;;;;85.57;11.60;;;2.10;99.90;;;;;;5016439;28;20033;-82
2023/03/03 00:18:29;;;;;;;48.03;10.15;;;3.30;99.90;;;;;;5016368;28;20458;-82
2023/03/03 00:20:59;;;;;;;57.35;10.25;;;3.10;99.90;;;;;;5048377;28;20124;-82
2023/03/03 00:23:39;;;;;;;60.55;10.63;;;3.10;99.90;;;;;;5033084;28;20041;-82
2023/03/03 00:26:32;;;;;;;63.95;11.40;;;3.10;99.90;;;;;;5016257;28;20080;-82
2023/03/03 00:29:00;;;;;;;50.08;11.15;;;3.10;99.90;;;;;;5015315;28;20036;-82
2023/03/03 00:31:34;;;;;;;78.47;11.20;;;3.10;99.90;;;;;;5016389;28;20041;-82
2023/03/03 00:34:24;;;;;;;102.28;12.85;;;3.60;99.90;;;;;;5047920;28;20459;-82
2023/03/03 00:36:56;;;;;;;105.32;13.50;;;3.10;99.90;;;;;;5016194;28;20120;-82
2023/03/03 00:39:35;;;;;;;86.53;12.85;;;3.10;99.90;;;;;;5064489;28;20037;-82
2023/03/03 00:42:09;;;;;;;59.60;10.57;;;3.20;99.90;;;;;;5030777;28;20052;-82
2023/03/03 00:44:40;;;;;;;59.28;10.35;;;3.20;99.90;;;;;;5015973;28;20041;-82
2023/03/03 00:47:35;;;;;;;74.68;11.75;;;3.90;99.90;;;;;;5032908;28;20076;-82
2023/03/03 00:50:06;;;;;;;62.55;10.88;;;3.00;99.90;;;;;;5016049;28;20079;-82
2023/03/03 00:52:44;;;;;;;129.63;16.17;;;3.50;99.90;;;;;;5015731;28;20551;-81
2023/03/03 00:55:11;;;;;;;103.32;12.40;;;3.00;99.90;;;;;;5015738;28;20046;-81
2023/03/03 00:57:36;;;;;;;139.18;12.73;;;3.30;99.90;;;;;;5031828;28;20056;-82
2023/03/03 01:00:03;;;;;;;142.00;12.13;;;3.00;99.90;;;;;;4999904;28;20037;-82
2023/03/03 01:02:29;;;;;;;210.13;16.63;;;3.10;99.90;;;;;;5032925;28;20034;-82
2023/03/03 01:04:56;;;;;;;221.50;16.48;;;3.60;99.90;;;;;;4999969;28;20088;-82
2023/03/03 01:07:22;;;;;;;156.13;12.65;;;2.90;99.90;;;;;;5015353;28;20112;-82
2023/03/03 01:09:48;;;;;;;;;;;2.90;99.90;;;;;;4999316;28;20385;-83
2023/03/03 01:12:14;;;;;;;240.52;16.23;;;4.00;99.90;;;;;;5015716;28;19921;-82
2023/03/03 01:14:40;;;;;;;183.43;13.68;;;2.80;99.90;;;;;;5016036;28;20067;-82
2023/03/03 01:17:06;;;;;;;123.10;10.40;;;2.80;99.90;;;;;;5000014;28;20124;-82
2023/03/03 01:19:32;;;;;;;105.00;9.10;;;4.00;99.90;;;;;;5015385;28;20059;-82
2023/03/03 01:21:57;;;;;;;90.72;8.40;;;2.70;99.90;;;;;;4999247;28;20049;-82
2023/03/03 01:24:23;;;;;;;126.73;10.40;;;2.70;99.90;;;;;;4999016;28;20406;-82
2023/03/03 01:26:49;;;;;;;125.28;11.18;;;2.60;99.90;;;;;;4998604;28;20037;-82
2023/03/03 01:29:14;;;;;;;139.07;11.43;;;4.00;99.90;;;;;;5031620;28;20034;-82
2023/03/03 01:31:40;;;;;;;169.60;13.63;;;2.50;99.90;;;;;;5015794;28;20041;-82
2023/03/03 01:34:06;;;;;;;141.45;11.85;;;3.90;99.90;;;;;;4999393;28;20315;-82
2023/03/03 01:36:32;;;;;;;106.55;9.73;;;2.40;99.90;;;;;;4998626;28;20095;-82
2023/03/03 01:38:58;;;;;;;267.40;16.08;;;2.50;99.90;;;;;;5031448;28;20045;-82
2023/03/03 01:41:28;;;;;;;158.40;11.38;;;2.40;99.90;;;;;;4998773;28;20055;-82
2023/03/03 01:43:55;;;;;;;272.50;14.57;;;2.30;99.90;;;;;;5015437;28;20045;-82
2023/03/03 01:46:23;;;;;;;;;;;2.30;99.90;;;;;;5015856;28;20124;-82
2023/03/03 01:48:54;;;;;;;139.95;10.23;;;2.20;99.90;;;;;;5030769;28;19921;-83
2023/03/03 01:51:26;;;;;;;179.65;10.75;;;2.20;99.90;;;;;;5014987;28;20379;-83
2023/03/03 01:53:56;;;;;;;187.48;12.23;;;2.10;99.90;;;;;;5031944;28;20041;-83
2023/03/03 01:56:22;;;;;;;194.98;11.70;;;2.00;99.90;;;;;;5015535;28;20067;-83
2023/03/03 01:59:06;;;;;;;196.95;11.60;;;2.80;99.90;;;;;;5015776;28;20037;-83
2023/03/03 02:01:32;;;;;;;189.05;12.07;;;3.10;99.90;;;;;;5016529;28;20387;-83
2023/03/03 02:03:59;;;;;;;244.63;14.65;;;3.10;99.90;;;;;;4997506;28;20044;-83
2023/03/03 02:06:34;;;;;;;209.75;12.88;;;1.80;99.90;;;;;;5015746;28;20038;-83
2023/03/03 02:09:26;;;;;;;146.70;9.63;;;1.80;99.90;;;;;;5015159;28;20121;-83
2023/03/03 02:11:57;;;;;;;204.93;11.70;;;1.70;99.90;;;;;;5030762;28;20065;-83
2023/03/03 02:14:24;;;;;;;150.77;10.48;;;1.70;99.90;;;;;;5015472;28;20045;-83
2023/03/03 02:16:51;;;;;;;237.48;12.60;;;2.40;99.90;;;;;;5015051;28;20049;-83
2023/03/03 02:19:39;;;;;;;;;;;2.70;99.90;;;;;;5032447;28;20090;-83
2023/03/03 02:22:05;;;;;;;214.30;13.38;;;1.50;99.90;;;;;;5060577;28;19917;-83
2023/03/03 02:24:39;;;;;;;256.13;14.30;;;1.50;99.90;;;;;;5014675;28;20114;-83
2023/03/03 02:27:04;;;;;;;236.57;11.18;;;1.40;99.90;;;;;;5014843;28;20041;-83
2023/03/03 02:29:30;;;;;;;154.57;8.82;;;1.40;99.90;;;;;;4998567;28;20033;-82
2023/03/03 02:31:56;;;;;;;208.82;10.23;;;2.00;99.90;;;;;;5002520;28;20037;-82
2023/03/03 02:34:21;;;;;;;243.67;10.97;;;1.30;99.90;;;;;;5021398;28;20037;-82
2023/03/03 02:36:47;;;;;;;103.90;7.35;;;2.70;99.90;;;;;;5021056;28;20306;-82
2023/03/03 02:39:25;;;;;;;176.13;9.77;;;1.20;99.90;;;;;;5021485;28;20112;-82
2023/03/03 02:42:22;;;;;;;120.15;7.32;;;1.10;99.90;;;;;;5036849;28;20573;-82
2023/03/03 02:44:48;;;;;;;100.18;6.85;;;1.10;99.90;;;;;;5038157;28;20049;-82
2023/03/03 02:47:15;;;;;;;115.10;6.43;;;1.00;99.90;;;;;;5021892;28;20049;-82
2023/03/03 02:49:42;;;;;;;64.15;5.85;;;0.90;99.90;;;;;;5037793;28;20049;-82
2023/03/03 02:52:10;;;;;;;60.38;6.05;;;0.90;99.90;;;;;;5021384;28;21640;-82
2023/03/03 02:54:36;;;;;;;51.10;4.25;;;2.40;99.90;;;;;;5037349;28;20037;-82
2023/03/03 02:57:03;;;;;;;34.72;5.78;;;0.80;99.90;;;;;;5020216;28;20033;-82
2023/03/03 02:59:29;;;;;;;64.18;4.50;;;0.80;99.90;;;;;;5021446;28;20489;-82
2023/03/03 03:01:55;;;;;;;38.53;4.68;;;1.00;99.90;;;;;;5020665;28;20033;-82
2023/03/03 03:04:23;;;;;;;52.70;4.78;;;0.70;99.90;;;;;;5004907;28;20044;-82
2023/03/03 03:06:50;;;;;;;52.38;5.22;;;0.70;99.90;;;;;;5021167;28;20091;-82
2023/03/03 03:09:17;;;;;;;60.92;6.22;;;0.70;99.90;;;;;;5020789;28;20041;-82
2023/03/03 03:11:43;;;;;;;33.22;5.43;;;0.70;99.90;;;;;;5037904;28;20038;-82
2023/03/03 03:14:10;;;;;;;69.75;6.07;;;1.30;99.90;;;;;;5021054;28;20366;-82
2023/03/03 03:16:36;;;;;;;39.72;5.40;;;0.60;99.90;;;;;;5030360;28;20041;-82
2023/03/03 03:19:03;;;;;;;43.88;4.55;;;2.30;99.90;;;;;;5005043;28;20401;-82
2023/03/03 03:21:29;;;;;;;50.22;6.22;;;0.60;99.90;;;;;;5004212;28;20059;-82
2023/03/03 03:23:55;;;;;;;38.75;4.88;;;1.30;99.90;;;;;;5020970;28;20044;-82
2023/03/03 03:26:21;;;;;;;55.78;5.32;;;0.60;99.90;;;;;;5020504;28;20055;-81
2023/03/03 03:28:48;;;;;;;28.95;4.57;;;1.90;99.90;;;;;;5020347;28;20116;-82
2023/03/03 03:31:15;;;;;;;22.63;5.05;;;1.30;99.90;;;;;;5020874;28;20084;-82
2023/03/03 03:33:41;;;;;;;47.85;4.93;;;0.90;99.90;;;;;;5021210;28;20505;-83
2023/03/03 03:36:07;;;;;;;46.30;5.05;;;0.40;99.90;;;;;;5037576;28;20037;-82
2023/03/03 03:38:35;;;;;;;;;;;0.40;99.90;;;;;;5021461;28;20129;-82
2023/03/03 03:41:01;;;;;;;;;;;0.30;99.90;;;;;;5021532;28;19971;-82
2023/03/03 03:43:27;;;;;;;51.08;6.05;;;0.30;99.90;;;;;;5017816;28;19921;-83
2023/03/03 03:45:53;;;;;;;41.65;5.00;;;0.30;99.90;;;;;;5015710;28;20088;-82
2023/03/03 03:48:19;;;;;;;54.78;6.07;;;0.30;99.90;;;;;;5034245;28;20081;-82
2023/03/03 03:50:49;;;;;;;52.92;6.63;;;0.20;99.90;;;;;;5001786;28;20485;-83
2023/03/03 03:53:16;;;;;;;63.08;6.13;;;0.20;99.90;;;;;;5033711;28;20126;-82
2023/03/03 03:55:42;;;;;;;75.22;6.95;;;1.00;99.90;;;;;;5033332;28;20052;-82
2023/03/03 03:58:11;;;;;;;87.57;6.07;;;1.10;99.90;;;;;;5034110;28;20049;-81
2023/03/03 04:00:40;;;;;;;86.80;6.32;;;0.10;99.90;;;;;;5033913;28;20511;-81
2023/03/03 04:03:05;;;;;;;72.88;6.88;;;0.10;99.90;;;;;;5001137;28;20389;-82
2023/03/03 04:05:31;;;;;;;68.15;6.30;;;0.10;99.90;;;;;;5016116;28;20056;-82
2023/03/03 04:07:57;;;;;;;87.23;6.10;;;1.40;99.90;;;;;;5001075;28;20048;-83
2023/03/03 04:10:22;;;;;;;64.85;5.63;;;0.10;99.90;;;;;;5066964;28;20050;-82
2023/03/03 04:12:48;;;;;;;40.42;4.25;;;0.00;99.90;;;;;;5033364;28;20041;-82
2023/03/03 04:15:14;;;;;;;28.27;4.22;;;0.00;99.90;;;;;;5033414;28;20051;-82
2023/03/03 04:17:40;;;;;;;21.25;4.15;;;0.00;99.90;;;;;;5001177;28;20102;-82
2023/03/03 04:20:07;;;;;;;19.98;4.30;;;1.60;99.90;;;;;;5033554;28;20454;-82
2023/03/03 04:22:34;;;;;;;30.80;4.45;;;-0.10;99.90;;;;;;5016043;28;20115;-82
2023/03/03 04:25:04;;;;;;;59.85;5.97;;;0.40;99.90;;;;;;5032712;28;20081;-81
2023/03/03 04:27:34;;;;;;;27.67;4.70;;;0.00;99.90;;;;;;5016695;28;20041;-82
2023/03/03 04:30:00;;;;;;;27.83;4.40;;;-0.10;99.90;;;;;;5033319;28;20482;-82
2023/03/03 04:32:26;;;;;;;28.52;4.88;;;-0.10;99.90;;;;;;5033229;28;20056;-82
2023/03/03 04:34:52;;;;;;;33.83;4.88;;;0.50;99.90;;;;;;5000325;28;20049;-82
2023/03/03 04:37:18;;;;;;;;;;;-0.10;99.90;;;;;;5033501;28;20041;-82
2023/03/03 04:39:44;;;;;;;33.45;5.22;;;0.00;99.90;;;;;;5033217;28;20511;-82
2023/03/03 04:42:10;;;;;;;35.10;5.05;;;-0.20;99.90;;;;;;5032483;28;20073;-82
2023/03/03 04:44:36;;;;;;;37.97;5.03;;;0.20;99.90;;;;;;4999900;28;20040;-82
2023/03/03 04:47:02;;;;;;;37.10;4.93;;;-0.20;99.90;;;;;;5032584;28;20034;-81
2023/03/03 04:49:28;;;;;;;49.65;6.50;;;-0.20;99.90;;;;;;5016217;28;20411;-82
2023/03/03 04:51:53;;;;;;;47.95;5.22;;;-0.20;99.90;;;;;;4982526;28;20091;-82
2023/03/03 04:54:19;;;;;;;42.30;4.97;;;1.60;99.90;;;;;;5032466;28;20044;-82
2023/03/03 04:56:45;;;;;;;29.27;4.40;;;-0.30;99.90;;;;;;5015992;28;20041;-82
2023/03/03 04:59:11;;;;;;;21.55;4.22;;;-0.30;99.90;;;;;;5016298;28;20049;-82
2023/03/03 05:01:36;;;;;;;14.90;3.53;;;-0.30;99.90;;;;;;5016122;28;20042;-81
2023/03/03 05:04:02;;;;;;;14.32;3.88;;;0.30;99.90;;;;;;4999868;28;20041;-81
2023/03/03 05:06:28;;;;;;;9.38;3.53;;;-0.30;99.90;;;;;;5015580;28;20053;-82
2023/03/03 05:08:53;;;;;;;6.13;3.45;;;1.40;99.90;;;;;;5016340;28;20033;-82
2023/03/03 05:11:19;;;;;;;6.85;3.92;;;1.00;99.90;;;;;;4999306;28;20219;-82
2023/03/03 05:13:45;;;;;;;7.38;3.65;;;1.00;99.90;;;;;;5032061;28;20041;-82
2023/03/03 05:16:11;;;;;;;7.32;3.63;;;1.00;99.90;;;;;;5016543;28;20056;-83
2023/03/03 05:18:37;;;;;;;9.40;4.40;;;-0.30;99.90;;;;;;5016273;28;20481;-83
2023/03/03 05:21:02;;;;;;;7.50;3.92;;;1.50;99.90;;;;;;4999968;28;20442;-83
2023/03/03 05:23:28;;;;;;;6.22;3.63;;;-0.30;99.90;;;;;;4999498;28;20436;-83
2023/03/03 05:25:54;;;;;;;7.57;3.85;;;-0.20;99.90;;;;;;5015868;28;20045;-83
2023/03/03 05:28:20;;;;;;;6.83;3.80;;;-0.20;99.90;;;;;;4983250;28;20040;-84
2023/03/03 05:30:45;;;;;;;6.95;3.92;;;0.20;99.90;;;;;;5001030;28;20350;-83
2023/03/03 05:33:16;;;;;;;7.57;4.03;;;0.00;99.90;;;;;;5000563;28;20041;-84
2023/03/03 05:35:42;;;;;;;7.60;3.95;;;1.00;99.90;;;;;;5017492;28;20153;-84
2023/03/03 05:38:08;;;;;;;;;;;1.00;99.90;;;;;;5015710;28;20041;-83
2023/03/03 05:40:34;;;;;;;6.72;4.28;;;0.60;99.90;;;;;;5065426;28;19924;-81
2023/03/03 05:42:59;;;;;;;9.30;4.07;;;0.90;99.90;;;;;;4999043;28;20045;-82
2023/03/03 05:45:25;;;;;;;7.18;3.88;;;-0.30;99.90;;;;;;5030908;28;20413;-82
2023/03/03 05:47:51;;;;;;;7.55;4.15;;;-0.30;99.90;;;;;;5031795;28;20033;-82
2023/03/03 05:50:18;;;;;;;7.68;3.85;;;0.60;99.90;;;;;;5031389;28;20133;-82
2023/03/03 05:52:47;;;;;;;6.50;3.70;;;-0.40;99.90;;;;;;5014990;28;20037;-82
2023/03/03 05:55:13;;;;;;;8.48;4.35;;;1.00;99.90;;;;;;5014778;28;20128;-82
2023/03/03 05:57:38;;;;;;;8.02;4.10;;;-0.50;99.90;;;;;;5015288;28;20128;-82
2023/03/03 06:00:05;;;;;;;7.47;3.78;;;-0.40;99.90;;;;;;5014123;28;20061;-82
2023/03/03 06:02:31;;;;;;;8.07;3.90;;;-0.50;99.90;;;;;;5033256;28;20033;-82
2023/03/03 06:04:57;;;;;;;5.35;3.30;;;1.00;99.90;;;;;;5014255;28;20041;-82
2023/03/03 06:07:22;;;;;;;5.57;3.45;;;1.00;99.90;;;;;;5013530;28;20033;-83
2023/03/03 06:09:48;;;;;;;7.53;3.80;;;-0.20;99.90;;;;;;5014152;28;20088;-82
2023/03/03 06:12:14;;;;;;;6.20;3.67;;;0.90;99.90;;;;;;5030223;28;20513;-83
2023/03/03 06:14:40;;;;;;;6.82;3.80;;;-0.50;99.90;;;;;;4998147;28;20033;-82
2023/03/03 06:17:05;;;;;;;7.25;3.92;;;-0.30;99.90;;;;;;5014190;28;20481;-82
2023/03/03 06:19:31;;;;;;;5.78;3.42;;;0.70;99.90;;;;;;5013719;28;20061;-82
2023/03/03 06:21:57;;;;;;;6.00;3.70;;;-0.50;99.90;;;;;;5013923;28;20105;-82
2023/03/03 06:24:25;;;;;;;5.47;3.10;;;-0.50;99.90;;;;;;4997852;28;20033;-82
2023/03/03 06:26:51;;;;;;;6.45;3.63;;;0.60;99.90;;;;;;5014244;28;20037;-82
2023/03/03 06:29:17;;;;;;;6.07;3.30;;;1.20;99.90;;;;;;5023928;28;20068;-82
2023/03/03 06:31:43;;;;;;;6.93;3.67;;;0.80;99.90;;;;;;4997790;28;20030;-82
2023/03/03 06:34:09;;;;;;;6.53;3.67;;;-0.60;99.90;;;;;;4997301;28;20047;-82
2023/03/03 06:36:35;;;;;;;6.22;3.40;;;-0.60;99.90;;;;;;5013911;28;20033;-82
2023/03/03 06:39:01;;;;;;;7.13;3.50;;;-0.50;99.90;;;;;;5014055;28;20041;-82
2023/03/03 06:41:26;;;;;;;5.57;3.22;;;-0.60;99.90;;;;;;5014282;28;20398;-83
2023/03/03 06:43:52;;;;;;;5.85;3.42;;;-0.50;99.90;;;;;;5013890;28;20037;-82
2023/03/03 06:46:18;;;;;;;6.88;3.72;;;-0.50;99.90;;;;;;5013139;28;20045;-82
2023/03/03 06:48:44;;;;;;;6.07;3.60;;;-0.50;99.90;;;;;;5013446;28;20114;-82
2023/03/03 06:51:46;;;;;;;5.95;4.07;;;-0.40;99.90;;;;;;4997272;28;20453;-82
2023/03/03 06:54:15;;;;;;;6.65;3.80;;;-0.40;99.90;;;;;;5009440;28;20080;-83
2023/03/03 06:56:42;;;;;;;9.77;4.00;;;1.20;99.90;;;;;;5013282;28;20080;-82
2023/03/03 06:59:15;;;;;;;6.57;3.97;;;0.60;99.90;;;;;;5029780;28;20050;-82
2023/03/03 07:01:42;;;;;;;7.85;4.15;;;-0.20;99.90;;;;;;5029906;28;20073;-82
2023/03/03 07:04:29;;;;;;;11.18;4.75;;;0.40;99.90;;;;;;5030013;28;20401;-82
2023/03/03 07:06:58;;;;;;;9.07;4.55;;;0.00;99.90;;;;;;5008631;28;20045;-82
2023/03/03 07:09:26;;;;;;;7.78;4.45;;;0.00;99.90;;;;;;4997083;28;20140;-83
2023/03/03 07:12:14;;;;;;;10.48;4.88;;;0.30;99.90;;;;;;5013724;28;20040;-83
2023/03/03 07:14:50;;;;;;;7.75;4.40;;;0.10;99.90;;;;;;5013236;28;20045;-82
2023/03/03 07:17:18;;;;;;;8.07;4.67;;;0.10;99.90;;;;;;5013962;28;20037;-82
2023/03/03 07:19:45;;;;;;;7.82;4.43;;;0.20;99.90;;;;;;5031145;28;20041;-83
2023/03/03 07:22:17;;;;;;;7.28;4.30;;;0.60;99.90;;;;;;5000767;28;20034;-81
2023/03/03 07:24:45;;;;;;;9.25;4.47;;;0.40;99.90;;;;;;5032851;28;20041;-81
2023/03/03 07:27:23;;;;;;;10.32;4.47;;;1.50;99.90;;;;;;5031031;28;20052;-81
2023/03/03 07:29:51;;;;;;;8.20;4.45;;;0.60;99.90;;;;;;5030846;28;20040;-81
2023/03/03 07:32:22;;;;;;;8.38;4.78;;;0.80;99.90;;;;;;5033379;28;20037;-81
2023/03/03 07:34:50;;;;;;;8.38;4.47;;;1.00;99.90;;;;;;5033035;28;20029;-79
2023/03/03 07:37:19;;;;;;;7.72;4.53;;;1.60;99.90;;;;;;5032570;28;20501;-82
2023/03/03 07:39:46;;;;;;;7.32;4.40;;;1.80;99.90;;;;;;5032405;28;20034;-82
2023/03/03 07:42:21;;;;;;;7.45;4.00;;;2.00;99.90;;;;;;5032879;28;20064;-80
2023/03/03 07:44:48;;;;;;;11.23;4.60;;;2.10;99.90;;;;;;5033970;28;20124;-83
2023/03/03 07:47:19;;;;;;;7.60;4.50;;;3.40;99.90;;;;;;5033909;28;20124;-83
2023/03/03 07:49:48;;;;;;;9.40;4.70;;;1.90;99.90;;;;;;5032744;28;20049;-83
2023/03/03 07:52:29;;;;;;;8.57;4.43;;;1.80;99.90;;;;;;5000861;28;20037;-82
2023/03/03 07:54:59;;;;;;;9.85;4.38;;;1.70;99.90;;;;;;5032391;28;20488;-82
2023/03/03 07:57:43;;;;;;;9.02;4.85;;;1.60;99.90;;;;;;5030179;28;20045;-82
2023/03/03 08:00:17;;;;;;;8.70;4.82;;;1.80;99.90;;;;;;5014522;28;20041;-82
2023/03/03 08:03:06;;;;;;;11.07;4.68;;;1.60;99.90;;;;;;5032830;28;20046;-82
2023/03/03 08:05:38;;;;;;;11.30;5.00;;;1.50;99.90;;;;;;5018522;28;20049;-81
2023/03/03 08:08:15;;;;;;;8.15;4.60;;;1.60;99.90;;;;;;5016070;28;20037;-79
2023/03/03 08:10:51;;;;;;;8.15;4.50;;;1.60;99.90;;;;;;5031918;28;20370;-78
2023/03/03 08:13:32;;;;;;;8.27;4.75;;;1.60;99.90;;;;;;5029970;28;20033;-77
2023/03/03 08:16:08;;;;;;;7.80;4.65;;;1.60;99.90;;;;;;5013533;28;20077;-78
2023/03/03 08:18:46;;;;;;;8.50;5.10;;;1.70;99.90;;;;;;5028812;28;20041;-78
2023/03/03 08:21:24;;;;;;;8.27;4.50;;;1.70;99.90;;;;;;5031263;28;20371;-78
2023/03/03 08:23:52;;;;;;;9.23;4.35;;;2.10;99.90;;;;;;5031130;28;20049;-78
2023/03/03 08:26:22;;;;;;;11.45;6.40;;;1.70;99.90;;;;;;5031095;28;20131;-77
2023/03/03 08:28:48;;;;;;;11.00;5.32;;;2.30;99.90;;;;;;5013731;28;20034;-78
2023/03/03 08:31:14;;;;;;;8.85;4.93;;;1.70;99.90;;;;;;5031491;28;20049;-78
2023/03/03 08:33:40;;;;;;;8.43;4.78;;;1.80;99.90;;;;;;5014373;28;20132;-78
2023/03/03 08:36:07;;;;;;;8.80;4.93;;;1.70;99.90;;;;;;5031213;28;20076;-78
2023/03/03 08:38:33;;;;;;;8.95;4.93;;;1.80;99.90;;;;;;5030741;28;20037;-78
2023/03/03 08:40:59;;;;;;;9.40;5.18;;;2.10;99.90;;;;;;5031161;28;20470;-76
2023/03/03 08:43:24;;;;;;;10.70;5.43;;;2.00;99.90;;;;;;5030523;28;20072;-79
2023/03/03 08:45:52;;;;;;;10.13;5.38;;;1.80;99.90;;;;;;5014780;28;20075;-81
2023/03/03 08:48:19;;;;;;;11.52;5.07;;;1.90;99.90;;;;;;5031247;28;20033;-81
2023/03/03 08:50:45;;;;;;;;;;;1.90;99.90;;;;;;5031248;28;20149;-80
2023/03/03 08:53:12;;;;;;;10.75;4.85;;;1.90;99.90;;;;;;5031447;28;19923;-81
2023/03/03 08:55:38;;;;;;;7.80;5.00;;;2.00;99.90;;;;;;5031327;28;20378;-81
2023/03/03 08:58:04;;;;;;;;;;;2.00;99.90;;;;;;5031881;28;20076;-80
2023/03/03 09:00:30;;;;;;;9.13;5.03;;;2.10;99.90;;;;;;5031229;28;19971;-79
2023/03/03 09:02:56;;;;;;;10.98;5.40;;;2.10;99.90;;;;;;5030934;28;20052;-80
2023/03/03 09:05:22;;;;;;;10.80;5.50;;;2.60;99.90;;;;;;5014458;28;20041;-80
2023/03/03 09:07:49;;;;;;;8.70;5.35;;;2.40;99.90;;;;;;4997755;28;20033;-80
2023/03/03 09:10:18;;;;;;;10.40;5.47;;;2.30;99.90;;;;;;5007283;28;20033;-80
2023/03/03 09:12:49;;;;;;;10.75;5.22;;;3.40;99.90;;;;;;5030201;28;20038;-80
2023/03/03 09:15:27;;;;;;;13.25;6.07;;;2.50;99.90;;;;;;5031095;28;20124;-80
2023/03/03 09:17:56;;;;;;;13.07;5.45;;;2.60;99.90;;;;;;5014416;28;20044;-80
2023/03/03 09:20:29;;;;;;;9.27;5.60;;;2.60;99.90;;;;;;5030642;28;20047;-80
2023/03/03 09:22:55;;;;;;;11.70;6.00;;;2.70;99.90;;;;;;5030746;28;20485;-80
2023/03/03 09:25:26;;;;;;;9.70;5.35;;;3.00;99.90;;;;;;5030769;28;20053;-81
2023/03/03 09:27:54;;;;;;;10.60;5.25;;;2.90;99.90;;;;;;5030373;28;20057;-81
2023/03/03 09:30:25;;;;;;;9.55;5.57;;;3.00;99.90;;;;;;5030481;28;20147;-81
2023/03/03 09:32:55;;;;;;;13.15;5.50;;;3.30;99.90;;;;;;5013774;28;20227;-81
2023/03/03 09:35:39;;;;;;;13.60;5.63;;;3.20;99.90;;;;;;5030339;28;20038;-81
2023/03/03 09:38:28;;;;;;;12.25;5.72;;;3.40;99.90;;;;;;5028262;28;20060;-81
2023/03/03 09:41:23;;;;;;;9.73;5.55;;;3.50;99.90;;;;;;5028080;28;20128;-79
2023/03/03 09:44:21;;;;;;;9.68;5.95;;;3.70;99.90;;;;;;5028278;28;20091;-79
2023/03/03 09:47:16;;;;;;;8.07;5.65;;;3.90;99.90;;;;;;5011024;28;20037;-79
2023/03/03 09:49:48;;;;;;;7.75;5.05;;;4.10;99.90;;;;;;5027498;28;20059;-82
2023/03/03 09:52:38;;;;;;;10.13;5.18;;;4.30;99.90;;;;;;5029591;28;20057;-80
2023/03/03 09:55:29;;;;;;;8.45;4.82;;;4.50;99.90;;;;;;5030104;28;20568;-81
2023/03/03 09:58:00;;;;;;;8.98;4.68;;;4.70;99.90;;;;;;5027622;28;20119;-80
2023/03/03 10:00:40;;;;;;;9.38;4.85;;;4.80;99.90;;;;;;5029764;28;20033;-80
2023/03/03 10:03:18;;;;;;;10.63;4.15;;;4.90;99.90;;;;;;5013019;28;20048;-80
2023/03/03 10:05:54;;;;;;;7.25;4.50;;;5.00;99.90;;;;;;5028637;28;20147;-80
2023/03/03 10:08:54;;;;;;;8.93;5.33;;;5.00;99.90;;;;;;5028681;28;20516;-80
2023/03/03 10:11:38;;;;;;;9.93;4.43;;;5.20;99.90;;;;;;5028600;28;20041;-80
2023/03/03 10:14:26;;;;;;;9.75;4.60;;;5.20;99.90;;;;;;5026719;28;20092;-80
2023/03/03 10:17:19;;;;;;;8.63;4.50;;;5.40;99.90;;;;;;5010988;28;20052;-80
2023/03/03 10:19:59;;;;;;;7.57;5.00;;;5.50;99.90;;;;;;5029244;28;20112;-80
2023/03/03 10:22:37;;;;;;;8.27;4.25;;;5.60;99.90;;;;;;5013261;28;20041;-80
2023/03/03 10:25:10;;;;;;;7.18;4.20;;;5.70;99.90;;;;;;5029435;28;20046;-80
2023/03/03 10:27:54;;;;;;;7.05;4.15;;;5.70;99.90;;;;;;5013171;28;20549;-80
2023/03/03 10:30:41;;;;;;;7.35;3.95;;;5.80;99.90;;;;;;5029837;28;20033;-79
2023/03/03 10:33:45;;;;;;;6.82;3.67;;;6.00;99.90;;;;;;5027543;28;20042;-81
2023/03/03 10:36:20;;;;;;;8.82;3.60;;;6.10;99.90;;;;;;5028687;28;20128;-81
2023/03/03 10:39:10;;;;;;;8.45;4.22;;;6.30;99.90;;;;;;5027473;28;20120;-81
2023/03/03 10:41:47;;;;;;;6.43;3.80;;;6.40;99.90;;;;;;5026386;28;20065;-81
2023/03/03 10:44:34;;;;;;;5.25;2.70;;;6.50;99.90;;;;;;5029932;28;20046;-81
2023/03/03 10:47:37;;;;;;;6.45;3.28;;;6.60;99.90;;;;;;5012872;28;20127;-80
2023/03/03 10:50:24;;;;;;;4.75;2.58;;;6.70;99.90;;;;;;5029462;28;20041;-81
2023/03/03 10:53:25;;;;;;;6.90;2.63;;;6.90;99.90;;;;;;5063918;28;20041;-80
2023/03/03 10:56:21;;;;;;;5.72;2.40;;;7.10;99.90;;;;;;5016202;28;20040;-79
2023/03/03 10:59:07;;;;;;;5.60;2.33;;;7.20;99.90;;;;;;5032608;28;20107;-80
2023/03/03 11:01:52;;;;;;;3.97;2.30;;;7.40;99.90;;;;;;5033422;28;20512;-80
2023/03/03 11:04:55;;;;;;;8.05;2.20;;;7.60;99.90;;;;;;5015685;28;20045;-80
2023/03/03 11:07:45;;;;;;;2.97;1.13;;;7.90;99.90;;;;;;5033268;28;20490;-80
2023/03/03 11:10:42;;;;;;;1.63;0.88;;;8.00;99.90;;;;;;5033486;28;20489;-80
2023/03/03 11:13:34;;;;;;;2.60;0.60;;;8.00;99.90;;;;;;5015151;28;20049;-81
2023/03/03 11:16:20;;;;;;;2.28;0.77;;;8.10;99.90;;;;;;5031746;28;21701;-79
2023/03/03 11:19:23;;;;;;;2.20;0.60;;;8.70;99.90;;;;;;5015016;28;20037;-80
2023/03/03 11:21:48;;;;;;;4.30;0.88;;;9.00;99.90;;;;;;5031835;28;20478;-80
2023/03/03 11:24:25;;;;;;;1.73;0.60;;;8.70;99.90;;;;;;5033518;28;20091;-81
2023/03/03 11:27:22;;;;;;;2.10;0.60;;;8.60;99.90;;;;;;5031287;28;20296;-81
2023/03/03 11:30:15;;;;;;;1.73;0.75;;;8.30;99.90;;;;;;5017243;28;20046;-80
2023/03/03 11:32:59;;;;;;;3.08;0.60;;;8.10;99.90;;;;;;5016635;28;20098;-80
2023/03/03 11:35:54;;;;;;;1.58;0.50;;;7.90;99.90;;;;;;5014184;28;20042;-81
2023/03/03 11:38:33;;;;;;;3.83;0.70;;;7.80;99.90;;;;;;5015782;28;20041;-79
2023/03/03 11:41:08;;;;;;;3.00;0.60;;;7.70;99.90;;;;;;5034541;28;20053;-81
2023/03/03 11:43:47;;;;;;;1.98;0.60;;;7.70;99.90;;;;;;5014852;28;20038;-81
2023/03/03 11:46:17;;;;;;;5.20;0.98;;;7.80;99.90;;;;;;5047465;28;20497;-80
2023/03/03 11:48:55;;;;;;;6.57;0.68;;;8.00;99.90;;;;;;5019843;28;20038;-80
2023/03/03 11:51:39;;;;;;;4.88;0.70;;;8.10;99.90;;;;;;5015776;28;20041;-81
2023/03/03 11:54:32;;;;;;;3.55;0.60;;;8.70;99.90;;;;;;5017406;28;20370;-81
2023/03/03 11:57:27;;;;;;;3.53;0.70;;;9.90;99.90;;;;;;5007732;28;20111;-80
2023/03/03 12:00:17;;;;;;;2.30;0.63;;;11.00;99.90;;;;;;4945299;28;20042;-81
2023/03/03 12:02:43;;;;;;;2.13;0.52;;;11.00;99.90;;;;;;5048421;28;20037;-80
2023/03/03 12:05:35;;;;;;;2.27;0.47;;;10.60;99.90;;;;;;5030935;28;20052;-81
2023/03/03 12:08:19;;;;;;;4.18;0.98;;;10.30;99.90;;;;;;5035725;28;20504;-81
2023/03/03 12:11:06;;;;;;;3.00;0.63;;;10.10;99.90;;;;;;5031412;28;20548;-81
2023/03/03 12:14:09;;;;;;;3.63;0.70;;;9.90;99.90;;;;;;5015490;28;20072;-81
2023/03/03 12:16:44;;;;;;;4.68;0.60;;;9.80;99.90;;;;;;5032185;28;20107;-80
2023/03/03 12:19:28;;;;;;;4.65;0.77;;;9.60;99.90;;;;;;5015488;28;20045;-81
2023/03/03 12:22:15;;;;;;;2.33;0.70;;;9.60;99.90;;;;;;5031767;28;20041;-81
2023/03/03 12:25:18;;;;;;;6.00;0.82;;;9.60;99.90;;;;;;5015645;28;20557;-81
2023/03/03 12:28:04;;;;;;;6.32;0.80;;;9.50;99.90;;;;;;5031975;28;20049;-82
2023/03/03 12:30:33;;;;;;;4.82;0.90;;;9.40;99.90;;;;;;5031437;28;20045;-80
2023/03/03 12:33:07;;;;;;;5.90;1.00;;;9.20;99.90;;;;;;5030279;28;20056;-81
2023/03/03 12:36:03;;;;;;;3.92;0.57;;;9.00;99.90;;;;;;5031030;28;20501;-81
2023/03/03 12:38:58;;;;;;;3.60;0.70;;;9.30;99.90;;;;;;5033744;28;20481;-81
2023/03/03 12:41:41;;;;;;;3.85;0.52;;;9.50;99.90;;;;;;5036355;28;20041;-80
2023/03/03 12:44:26;;;;;;;4.53;1.05;;;9.70;99.90;;;;;;5016826;28;20120;-81
2023/03/03 12:47:00;;;;;;;7.28;1.02;;;10.90;99.90;;;;;;5030860;28;20045;-81
2023/03/03 12:49:54;;;;;;;2.63;0.85;;;11.40;99.90;;;;;;5030994;28;20061;-81
2023/03/03 12:52:38;;;;;;;9.15;1.08;;;11.10;99.90;;;;;;5012929;28;20065;-81
2023/03/03 12:55:06;;;;;;;4.07;0.93;;;10.90;99.90;;;;;;5030946;28;20046;-80
2023/03/03 12:58:00;;;;;;;5.88;0.85;;;10.40;99.90;;;;;;5031168;28;20041;-80
2023/03/03 13:00:25;;;;;;;7.50;0.70;;;10.30;99.90;;;;;;5029757;28;20113;-80
2023/03/03 13:03:08;;;;;;;6.23;0.87;;;10.10;99.90;;;;;;5030987;28;20172;-81
2023/03/03 13:05:57;;;;;;;6.85;1.05;;;9.70;99.90;;;;;;5033056;28;20045;-80
2023/03/03 13:08:41;;;;;;;3.33;0.93;;;9.50;99.90;;;;;;5045051;28;20041;-81
2023/03/03 13:11:28;;;;;;;8.25;1.50;;;9.30;99.90;;;;;;5014550;28;20041;-80
2023/03/03 13:14:09;;;;;;;6.55;0.90;;;8.90;99.90;;;;;;5030376;28;20401;-80
2023/03/03 13:16:44;;;;;;;8.23;1.25;;;8.80;99.90;;;;;;5031047;28;20056;-80
2023/03/03 13:19:47;;;;;;;9.57;1.10;;;8.90;99.90;;;;;;5030369;28;20038;-80
2023/03/03 13:22:25;;;;;;;6.78;1.25;;;9.00;99.90;;;;;;4986536;28;20103;-80